sensor_id;sensor_type;location;lat;lon;timestamp;P1;durP1;ratioP1;P2;durP2;ratioP2
15246;SDS011;7726;48.820;9.248;2024-01-30T00:02:20;10.83;;;7.67;;
15246;SDS011;7726;48.820;9.248;2024-01-30T00:04:47;10.43;;;7.73;;
15246;SDS011;7726;48.820;9.248;2024-01-30T00:07:14;11.40;;;8.77;;
15246;SDS011;7726;48.820;9.248;2024-01-30T00:09:43;9.67;;;7.83;;
15246;SDS011;7726;48.820;9.248;2024-01-30T00:12:10;12.37;;;7.73;;
15246;SDS011;7726;48.820;9.248;2024-01-30T00:14:41;10.70;;;7.93;;
15246;SDS011;7726;48.820;9.248;2024-01-30T00:17:08;10.40;;;7.67;;
15246;SDS011;7726;48.820;9.248;2024-01-30T00:19:35;11.07;;;7.20;;
15246;SDS011;7726;48.820;9.248;2024-01-30T00:22:03;12.43;;;7.73;;
15246;SDS011;7726;48.820;9.248;2024-01-30T00:24:30;12.90;;;8.13;;
15246;SDS011;7726;48.820;9.248;2024-01-30T00:26:58;10.70;;;7.37;;
15246;SDS011;7726;48.820;9.248;2024-01-30T00:29:26;9.07;;;6.87;;
15246;SDS011;7726;48.820;9.248;2024-01-30T00:31:56;8.63;;;6.90;;
15246;SDS011;7726;48.820;9.248;2024-01-30T00:34:23;8.53;;;7.03;;
15246;SDS011;7726;48.820;9.248;2024-01-30T00:36:50;9.17;;;6.57;;
15246;SDS011;7726;48.820;9.248;2024-01-30T00:39:17;8.17;;;6.80;;
15246;SDS011;7726;48.820;9.248;2024-01-30T00:41:45;10.77;;;8.30;;
15246;SDS011;7726;48.820;9.248;2024-01-30T00:44:14;10.33;;;7.37;;
15246;SDS011;7726;48.820;9.248;2024-01-30T00:46:41;11.67;;;7.13;;
15246;SDS011;7726;48.820;9.248;2024-01-30T00:49:08;7.70;;;6.00;;
15246;SDS011;7726;48.820;9.248;2024-01-30T00:51:35;11.73;;;9.37;;
15246;SDS011;7726;48.820;9.248;2024-01-30T00:54:02;13.00;;;9.17;;
15246;SDS011;7726;48.820;9.248;2024-01-30T00:56:31;9.57;;;8.13;;
15246;SDS011;7726;48.820;9.248;2024-01-30T00:58:58;14.23;;;8.20;;
15246;SDS011;7726;48.820;9.248;2024-01-30T01:01:27;9.83;;;7.70;;
15246;SDS011;7726;48.820;9.248;2024-01-30T01:03:54;9.70;;;7.10;;
15246;SDS011;7726;48.820;9.248;2024-01-30T01:06:21;11.87;;;7.97;;
15246;SDS011;7726;48.820;9.248;2024-01-30T01:08:48;13.87;;;8.23;;
15246;SDS011;7726;48.820;9.248;2024-01-30T01:11:15;12.57;;;8.10;;
15246;SDS011;7726;48.820;9.248;2024-01-30T01:13:42;11.27;;;8.30;;
15246;SDS011;7726;48.820;9.248;2024-01-30T01:16:09;11.90;;;7.97;;
15246;SDS011;7726;48.820;9.248;2024-01-30T01:18:38;10.50;;;8.10;;
15246;SDS011;7726;48.820;9.248;2024-01-30T01:21:05;11.30;;;8.23;;
15246;SDS011;7726;48.820;9.248;2024-01-30T01:23:32;13.13;;;9.00;;
15246;SDS011;7726;48.820;9.248;2024-01-30T01:25:59;14.70;;;8.83;;
15246;SDS011;7726;48.820;9.248;2024-01-30T01:28:27;28.53;;;22.13;;
15246;SDS011;7726;48.820;9.248;2024-01-30T01:30:54;12.70;;;9.90;;
15246;SDS011;7726;48.820;9.248;2024-01-30T01:33:24;12.70;;;8.87;;
15246;SDS011;7726;48.820;9.248;2024-01-30T01:35:52;10.00;;;8.00;;
15246;SDS011;7726;48.820;9.248;2024-01-30T01:38:19;13.33;;;9.17;;
15246;SDS011;7726;48.820;9.248;2024-01-30T01:40:47;17.67;;;12.70;;
15246;SDS011;7726;48.820;9.248;2024-01-30T01:43:14;14.20;;;10.80;;
15246;SDS011;7726;48.820;9.248;2024-01-30T01:45:41;11.63;;;8.67;;
15246;SDS011;7726;48.820;9.248;2024-01-30T01:48:08;10.77;;;8.13;;
15246;SDS011;7726;48.820;9.248;2024-01-30T01:50:35;16.97;;;9.93;;
15246;SDS011;7726;48.820;9.248;2024-01-30T01:53:04;14.93;;;9.03;;
15246;SDS011;7726;48.820;9.248;2024-01-30T01:55:34;13.13;;;8.90;;
15246;SDS011;7726;48.820;9.248;2024-01-30T01:58:02;14.70;;;11.33;;
15246;SDS011;7726;48.820;9.248;2024-01-30T02:00:29;11.33;;;9.30;;
15246;SDS011;7726;48.820;9.248;2024-01-30T02:02:57;11.97;;;9.53;;
15246;SDS011;7726;48.820;9.248;2024-01-30T02:05:24;10.83;;;8.20;;
15246;SDS011;7726;48.820;9.248;2024-01-30T02:07:51;12.77;;;9.07;;
15246;SDS011;7726;48.820;9.248;2024-01-30T02:10:20;11.80;;;9.70;;
15246;SDS011;7726;48.820;9.248;2024-01-30T02:12:48;12.63;;;8.67;;
15246;SDS011;7726;48.820;9.248;2024-01-30T02:15:15;12.87;;;9.33;;
15246;SDS011;7726;48.820;9.248;2024-01-30T02:17:43;11.93;;;8.60;;
15246;SDS011;7726;48.820;9.248;2024-01-30T02:20:10;9.93;;;8.30;;
15246;SDS011;7726;48.820;9.248;2024-01-30T02:22:39;11.40;;;8.23;;
15246;SDS011;7726;48.820;9.248;2024-01-30T02:25:07;13.17;;;8.50;;
15246;SDS011;7726;48.820;9.248;2024-01-30T02:27:34;11.43;;;7.70;;
15246;SDS011;7726;48.820;9.248;2024-01-30T02:30:02;9.47;;;7.30;;
15246;SDS011;7726;48.820;9.248;2024-01-30T02:32:29;9.30;;;6.07;;
15246;SDS011;7726;48.820;9.248;2024-01-30T02:34:56;12.70;;;6.37;;
15246;SDS011;7726;48.820;9.248;2024-01-30T02:37:23;9.47;;;7.10;;
15246;SDS011;7726;48.820;9.248;2024-01-30T02:39:52;10.80;;;8.23;;
15246;SDS011;7726;48.820;9.248;2024-01-30T02:42:19;9.47;;;6.77;;
15246;SDS011;7726;48.820;9.248;2024-01-30T02:44:46;12.17;;;8.00;;
15246;SDS011;7726;48.820;9.248;2024-01-30T02:47:13;12.33;;;8.43;;
15246;SDS011;7726;48.820;9.248;2024-01-30T02:49:40;12.47;;;9.00;;
15246;SDS011;7726;48.820;9.248;2024-01-30T02:52:07;13.17;;;8.83;;
15246;SDS011;7726;48.820;9.248;2024-01-30T02:54:35;12.07;;;9.23;;
15246;SDS011;7726;48.820;9.248;2024-01-30T02:57:03;11.03;;;8.63;;
15246;SDS011;7726;48.820;9.248;2024-01-30T02:59:30;11.70;;;8.07;;
15246;SDS011;7726;48.820;9.248;2024-01-30T03:01:58;13.93;;;8.90;;
15246;SDS011;7726;48.820;9.248;2024-01-30T03:04:25;9.83;;;7.60;;
15246;SDS011;7726;48.820;9.248;2024-01-30T03:06:55;10.97;;;7.97;;
15246;SDS011;7726;48.820;9.248;2024-01-30T03:09:22;13.10;;;8.60;;
15246;SDS011;7726;48.820;9.248;2024-01-30T03:11:49;11.90;;;8.40;;
15246;SDS011;7726;48.820;9.248;2024-01-30T03:14:17;11.97;;;8.40;;
15246;SDS011;7726;48.820;9.248;2024-01-30T03:16:45;11.53;;;8.40;;
15246;SDS011;7726;48.820;9.248;2024-01-30T03:19:12;11.23;;;8.57;;
15246;SDS011;7726;48.820;9.248;2024-01-30T03:21:39;11.77;;;8.07;;
15246;SDS011;7726;48.820;9.248;2024-01-30T03:24:06;12.00;;;8.87;;
15246;SDS011;7726;48.820;9.248;2024-01-30T03:26:34;15.30;;;8.50;;
15246;SDS011;7726;48.820;9.248;2024-01-30T03:29:01;14.97;;;8.60;;
15246;SDS011;7726;48.820;9.248;2024-01-30T03:31:29;12.63;;;8.90;;
15246;SDS011;7726;48.820;9.248;2024-01-30T03:33:56;12.60;;;9.03;;
15246;SDS011;7726;48.820;9.248;2024-01-30T03:36:24;14.30;;;9.37;;
15246;SDS011;7726;48.820;9.248;2024-01-30T03:38:51;13.27;;;8.80;;
15246;SDS011;7726;48.820;9.248;2024-01-30T03:41:18;10.37;;;8.90;;
15246;SDS011;7726;48.820;9.248;2024-01-30T03:43:46;12.90;;;8.67;;
15246;SDS011;7726;48.820;9.248;2024-01-30T03:46:13;11.50;;;7.40;;
15246;SDS011;7726;48.820;9.248;2024-01-30T03:48:42;13.07;;;9.03;;
15246;SDS011;7726;48.820;9.248;2024-01-30T03:51:09;11.07;;;8.20;;
15246;SDS011;7726;48.820;9.248;2024-01-30T03:53:39;10.67;;;7.20;;
15246;SDS011;7726;48.820;9.248;2024-01-30T03:56:06;7.53;;;5.87;;
15246;SDS011;7726;48.820;9.248;2024-01-30T03:58:34;6.83;;;5.50;;
15246;SDS011;7726;48.820;9.248;2024-01-30T04:01:01;8.10;;;6.27;;
15246;SDS011;7726;48.820;9.248;2024-01-30T04:03:28;10.67;;;5.83;;
15246;SDS011;7726;48.820;9.248;2024-01-30T04:05:57;8.17;;;6.07;;
15246;SDS011;7726;48.820;9.248;2024-01-30T04:08:24;8.13;;;6.40;;
15246;SDS011;7726;48.820;9.248;2024-01-30T04:10:51;8.07;;;6.40;;
15246;SDS011;7726;48.820;9.248;2024-01-30T04:13:18;8.67;;;6.20;;
15246;SDS011;7726;48.820;9.248;2024-01-30T04:15:46;9.00;;;6.30;;
15246;SDS011;7726;48.820;9.248;2024-01-30T04:18:13;8.97;;;6.40;;
15246;SDS011;7726;48.820;9.248;2024-01-30T04:20:40;7.43;;;6.57;;
15246;SDS011;7726;48.820;9.248;2024-01-30T04:23:08;8.50;;;6.53;;
15246;SDS011;7726;48.820;9.248;2024-01-30T04:25:35;8.43;;;6.57;;
15246;SDS011;7726;48.820;9.248;2024-01-30T04:28:03;7.33;;;6.53;;
15246;SDS011;7726;48.820;9.248;2024-01-30T04:30:30;10.37;;;6.53;;
15246;SDS011;7726;48.820;9.248;2024-01-30T04:32:57;8.97;;;7.07;;
15246;SDS011;7726;48.820;9.248;2024-01-30T04:35:24;7.23;;;6.23;;
15246;SDS011;7726;48.820;9.248;2024-01-30T04:37:52;7.90;;;6.10;;
15246;SDS011;7726;48.820;9.248;2024-01-30T04:40:21;7.43;;;5.83;;
15246;SDS011;7726;48.820;9.248;2024-01-30T04:42:48;8.57;;;6.20;;
15246;SDS011;7726;48.820;9.248;2024-01-30T04:45:15;8.10;;;5.77;;
15246;SDS011;7726;48.820;9.248;2024-01-30T04:47:42;9.73;;;6.20;;
15246;SDS011;7726;48.820;9.248;2024-01-30T04:50:11;8.47;;;6.40;;
15246;SDS011;7726;48.820;9.248;2024-01-30T04:52:38;7.00;;;6.00;;
15246;SDS011;7726;48.820;9.248;2024-01-30T04:55:05;7.73;;;6.37;;
15246;SDS011;7726;48.820;9.248;2024-01-30T04:57:34;8.87;;;6.33;;
15246;SDS011;7726;48.820;9.248;2024-01-30T05:00:01;8.33;;;6.53;;
15246;SDS011;7726;48.820;9.248;2024-01-30T05:02:30;7.60;;;5.90;;
15246;SDS011;7726;48.820;9.248;2024-01-30T05:04:57;8.93;;;6.07;;
15246;SDS011;7726;48.820;9.248;2024-01-30T05:07:24;7.13;;;6.07;;
15246;SDS011;7726;48.820;9.248;2024-01-30T05:09:51;8.70;;;6.13;;
15246;SDS011;7726;48.820;9.248;2024-01-30T05:12:19;8.93;;;6.50;;
15246;SDS011;7726;48.820;9.248;2024-01-30T05:14:48;9.90;;;7.23;;
15246;SDS011;7726;48.820;9.248;2024-01-30T05:17:15;11.33;;;7.10;;
15246;SDS011;7726;48.820;9.248;2024-01-30T05:19:42;9.37;;;8.00;;
15246;SDS011;7726;48.820;9.248;2024-01-30T05:22:10;12.53;;;7.80;;
15246;SDS011;7726;48.820;9.248;2024-01-30T05:24:40;11.03;;;7.43;;
15246;SDS011;7726;48.820;9.248;2024-01-30T05:27:08;9.83;;;7.60;;
15246;SDS011;7726;48.820;9.248;2024-01-30T05:29:35;10.63;;;7.90;;
15246;SDS011;7726;48.820;9.248;2024-01-30T05:32:04;12.30;;;8.23;;
15246;SDS011;7726;48.820;9.248;2024-01-30T05:34:31;11.67;;;8.53;;
15246;SDS011;7726;48.820;9.248;2024-01-30T05:36:58;12.97;;;8.33;;
15246;SDS011;7726;48.820;9.248;2024-01-30T05:39:25;12.47;;;8.93;;
15246;SDS011;7726;48.820;9.248;2024-01-30T05:41:53;10.70;;;8.30;;
15246;SDS011;7726;48.820;9.248;2024-01-30T05:44:20;13.73;;;8.57;;
15246;SDS011;7726;48.820;9.248;2024-01-30T05:46:47;11.47;;;7.90;;
15246;SDS011;7726;48.820;9.248;2024-01-30T05:49:16;11.83;;;8.30;;
15246;SDS011;7726;48.820;9.248;2024-01-30T05:51:43;9.87;;;7.90;;
15246;SDS011;7726;48.820;9.248;2024-01-30T05:54:10;11.70;;;8.43;;
15246;SDS011;7726;48.820;9.248;2024-01-30T05:56:37;13.63;;;8.07;;
15246;SDS011;7726;48.820;9.248;2024-01-30T05:59:04;10.20;;;7.97;;
15246;SDS011;7726;48.820;9.248;2024-01-30T06:01:31;11.63;;;7.93;;
15246;SDS011;7726;48.820;9.248;2024-01-30T06:03:59;12.63;;;8.17;;
15246;SDS011;7726;48.820;9.248;2024-01-30T06:06:28;12.90;;;8.10;;
15246;SDS011;7726;48.820;9.248;2024-01-30T06:08:56;13.93;;;8.93;;
15246;SDS011;7726;48.820;9.248;2024-01-30T06:11:23;9.43;;;8.17;;
15246;SDS011;7726;48.820;9.248;2024-01-30T06:13:50;12.00;;;7.90;;
15246;SDS011;7726;48.820;9.248;2024-01-30T06:16:17;10.40;;;7.67;;
15246;SDS011;7726;48.820;9.248;2024-01-30T06:18:46;10.93;;;7.73;;
15246;SDS011;7726;48.820;9.248;2024-01-30T06:21:13;15.57;;;9.03;;
15246;SDS011;7726;48.820;9.248;2024-01-30T06:23:41;11.40;;;9.00;;
15246;SDS011;7726;48.820;9.248;2024-01-30T06:26:08;13.50;;;8.37;;
15246;SDS011;7726;48.820;9.248;2024-01-30T06:28:36;10.07;;;7.90;;
15246;SDS011;7726;48.820;9.248;2024-01-30T06:31:03;10.63;;;8.03;;
15246;SDS011;7726;48.820;9.248;2024-01-30T06:33:31;12.27;;;8.03;;
15246;SDS011;7726;48.820;9.248;2024-01-30T06:35:58;12.47;;;8.97;;
15246;SDS011;7726;48.820;9.248;2024-01-30T06:38:25;12.67;;;8.83;;
15246;SDS011;7726;48.820;9.248;2024-01-30T06:40:53;12.20;;;9.00;;
15246;SDS011;7726;48.820;9.248;2024-01-30T06:43:21;13.67;;;8.57;;
15246;SDS011;7726;48.820;9.248;2024-01-30T06:45:49;10.47;;;8.27;;
15246;SDS011;7726;48.820;9.248;2024-01-30T06:48:16;11.17;;;8.53;;
15246;SDS011;7726;48.820;9.248;2024-01-30T06:50:44;12.70;;;8.40;;
15246;SDS011;7726;48.820;9.248;2024-01-30T06:53:13;12.03;;;8.30;;
15246;SDS011;7726;48.820;9.248;2024-01-30T06:55:40;10.73;;;8.53;;
15246;SDS011;7726;48.820;9.248;2024-01-30T06:58:08;12.00;;;9.00;;
15246;SDS011;7726;48.820;9.248;2024-01-30T07:00:36;10.30;;;8.80;;
15246;SDS011;7726;48.820;9.248;2024-01-30T07:03:03;13.03;;;8.10;;
15246;SDS011;7726;48.820;9.248;2024-01-30T07:05:31;13.37;;;8.60;;
15246;SDS011;7726;48.820;9.248;2024-01-30T07:07:58;10.93;;;8.17;;
15246;SDS011;7726;48.820;9.248;2024-01-30T07:10:25;11.23;;;7.67;;
15246;SDS011;7726;48.820;9.248;2024-01-30T07:12:52;10.30;;;7.93;;
15246;SDS011;7726;48.820;9.248;2024-01-30T07:15:21;11.23;;;8.10;;
15246;SDS011;7726;48.820;9.248;2024-01-30T07:17:48;12.07;;;8.57;;
15246;SDS011;7726;48.820;9.248;2024-01-30T07:20:15;10.80;;;8.53;;
15246;SDS011;7726;48.820;9.248;2024-01-30T07:22:45;14.47;;;8.57;;
15246;SDS011;7726;48.820;9.248;2024-01-30T07:25:12;10.37;;;7.63;;
15246;SDS011;7726;48.820;9.248;2024-01-30T07:27:40;11.87;;;8.40;;
15246;SDS011;7726;48.820;9.248;2024-01-30T07:30:07;12.13;;;8.50;;
15246;SDS011;7726;48.820;9.248;2024-01-30T07:32:36;12.30;;;8.90;;
15246;SDS011;7726;48.820;9.248;2024-01-30T07:35:03;13.90;;;8.30;;
15246;SDS011;7726;48.820;9.248;2024-01-30T07:37:30;10.30;;;8.30;;
15246;SDS011;7726;48.820;9.248;2024-01-30T07:39:57;13.27;;;8.60;;
15246;SDS011;7726;48.820;9.248;2024-01-30T07:42:25;15.30;;;8.93;;
15246;SDS011;7726;48.820;9.248;2024-01-30T07:44:52;11.53;;;7.63;;
15246;SDS011;7726;48.820;9.248;2024-01-30T07:47:19;10.00;;;7.73;;
15246;SDS011;7726;48.820;9.248;2024-01-30T07:49:47;11.00;;;7.53;;
15246;SDS011;7726;48.820;9.248;2024-01-30T07:52:15;10.67;;;6.87;;
15246;SDS011;7726;48.820;9.248;2024-01-30T07:54:42;11.87;;;7.33;;
15246;SDS011;7726;48.820;9.248;2024-01-30T07:57:09;8.93;;;6.87;;
15246;SDS011;7726;48.820;9.248;2024-01-30T07:59:37;9.33;;;7.77;;
15246;SDS011;7726;48.820;9.248;2024-01-30T08:02:04;10.63;;;7.27;;
15246;SDS011;7726;48.820;9.248;2024-01-30T08:04:31;10.77;;;7.53;;
15246;SDS011;7726;48.820;9.248;2024-01-30T08:07:00;9.73;;;8.13;;
15246;SDS011;7726;48.820;9.248;2024-01-30T08:09:27;11.47;;;6.70;;
15246;SDS011;7726;48.820;9.248;2024-01-30T08:11:54;8.00;;;7.10;;
15246;SDS011;7726;48.820;9.248;2024-01-30T08:14:21;11.30;;;7.67;;
15246;SDS011;7726;48.820;9.248;2024-01-30T08:16:48;10.50;;;7.73;;
15246;SDS011;7726;48.820;9.248;2024-01-30T08:19:15;10.57;;;8.03;;
15246;SDS011;7726;48.820;9.248;2024-01-30T08:21:43;10.93;;;7.60;;
15246;SDS011;7726;48.820;9.248;2024-01-30T08:24:11;9.03;;;7.33;;
15246;SDS011;7726;48.820;9.248;2024-01-30T08:26:38;8.30;;;7.03;;
15246;SDS011;7726;48.820;9.248;2024-01-30T08:29:06;9.60;;;7.37;;
15246;SDS011;7726;48.820;9.248;2024-01-30T08:31:33;10.43;;;7.90;;
15246;SDS011;7726;48.820;9.248;2024-01-30T08:34:00;10.50;;;7.73;;
15246;SDS011;7726;48.820;9.248;2024-01-30T08:36:27;11.83;;;7.77;;
15246;SDS011;7726;48.820;9.248;2024-01-30T08:38:54;11.83;;;7.47;;
15246;SDS011;7726;48.820;9.248;2024-01-30T08:41:23;10.57;;;8.30;;
15246;SDS011;7726;48.820;9.248;2024-01-30T08:43:50;8.70;;;7.33;;
15246;SDS011;7726;48.820;9.248;2024-01-30T08:46:17;8.97;;;6.60;;
15246;SDS011;7726;48.820;9.248;2024-01-30T08:48:45;8.97;;;7.70;;
15246;SDS011;7726;48.820;9.248;2024-01-30T08:51:12;13.07;;;8.20;;
15246;SDS011;7726;48.820;9.248;2024-01-30T08:53:40;12.20;;;8.70;;
15246;SDS011;7726;48.820;9.248;2024-01-30T08:56:08;13.37;;;7.30;;
15246;SDS011;7726;48.820;9.248;2024-01-30T08:58:36;12.00;;;7.87;;
15246;SDS011;7726;48.820;9.248;2024-01-30T09:01:03;9.07;;;7.30;;
15246;SDS011;7726;48.820;9.248;2024-01-30T09:03:31;14.13;;;8.80;;
15246;SDS011;7726;48.820;9.248;2024-01-30T09:05:58;13.70;;;7.87;;
15246;SDS011;7726;48.820;9.248;2024-01-30T09:08:26;17.80;;;8.13;;
15246;SDS011;7726;48.820;9.248;2024-01-30T09:10:53;14.60;;;8.63;;
15246;SDS011;7726;48.820;9.248;2024-01-30T09:13:20;12.40;;;8.73;;
15246;SDS011;7726;48.820;9.248;2024-01-30T09:15:49;13.50;;;8.33;;
15246;SDS011;7726;48.820;9.248;2024-01-30T09:18:16;13.70;;;8.07;;
15246;SDS011;7726;48.820;9.248;2024-01-30T09:20:43;10.80;;;7.80;;
15246;SDS011;7726;48.820;9.248;2024-01-30T09:23:12;12.67;;;7.77;;
15246;SDS011;7726;48.820;9.248;2024-01-30T09:25:39;11.03;;;8.30;;
15246;SDS011;7726;48.820;9.248;2024-01-30T09:28:06;10.27;;;8.00;;
15246;SDS011;7726;48.820;9.248;2024-01-30T09:30:34;12.90;;;8.17;;
15246;SDS011;7726;48.820;9.248;2024-01-30T09:33:02;11.27;;;7.93;;
15246;SDS011;7726;48.820;9.248;2024-01-30T09:35:30;11.00;;;8.73;;
15246;SDS011;7726;48.820;9.248;2024-01-30T09:37:57;10.03;;;8.13;;
15246;SDS011;7726;48.820;9.248;2024-01-30T09:40:24;13.33;;;8.33;;
15246;SDS011;7726;48.820;9.248;2024-01-30T09:42:52;10.77;;;8.17;;
15246;SDS011;7726;48.820;9.248;2024-01-30T09:45:22;13.47;;;8.47;;
15246;SDS011;7726;48.820;9.248;2024-01-30T09:47:50;11.40;;;8.73;;
15246;SDS011;7726;48.820;9.248;2024-01-30T09:50:19;10.60;;;8.60;;
15246;SDS011;7726;48.820;9.248;2024-01-30T09:52:47;12.13;;;8.83;;
15246;SDS011;7726;48.820;9.248;2024-01-30T09:55:14;12.90;;;8.40;;
15246;SDS011;7726;48.820;9.248;2024-01-30T09:57:42;11.07;;;8.10;;
15246;SDS011;7726;48.820;9.248;2024-01-30T10:00:09;12.20;;;8.00;;
15246;SDS011;7726;48.820;9.248;2024-01-30T10:02:37;11.20;;;8.53;;
15246;SDS011;7726;48.820;9.248;2024-01-30T10:05:04;11.27;;;7.60;;
15246;SDS011;7726;48.820;9.248;2024-01-30T10:07:33;9.33;;;8.00;;
15246;SDS011;7726;48.820;9.248;2024-01-30T10:10:01;15.47;;;7.73;;
15246;SDS011;7726;48.820;9.248;2024-01-30T10:12:29;8.67;;;7.20;;
15246;SDS011;7726;48.820;9.248;2024-01-30T10:14:56;9.03;;;7.43;;
15246;SDS011;7726;48.820;9.248;2024-01-30T10:17:25;11.80;;;7.57;;
15246;SDS011;7726;48.820;9.248;2024-01-30T10:19:54;14.33;;;8.37;;
15246;SDS011;7726;48.820;9.248;2024-01-30T10:22:21;9.90;;;8.20;;
15246;SDS011;7726;48.820;9.248;2024-01-30T10:24:50;10.60;;;7.60;;
15246;SDS011;7726;48.820;9.248;2024-01-30T10:27:19;11.17;;;8.23;;
15246;SDS011;7726;48.820;9.248;2024-01-30T10:29:50;10.77;;;8.07;;
15246;SDS011;7726;48.820;9.248;2024-01-30T10:32:17;9.80;;;7.43;;
15246;SDS011;7726;48.820;9.248;2024-01-30T10:34:49;10.80;;;7.87;;
15246;SDS011;7726;48.820;9.248;2024-01-30T10:37:16;9.87;;;7.47;;
15246;SDS011;7726;48.820;9.248;2024-01-30T10:39:46;10.17;;;7.07;;
15246;SDS011;7726;48.820;9.248;2024-01-30T10:42:15;10.80;;;6.77;;
15246;SDS011;7726;48.820;9.248;2024-01-30T10:44:46;12.30;;;7.97;;
15246;SDS011;7726;48.820;9.248;2024-01-30T10:47:15;13.07;;;7.97;;
15246;SDS011;7726;48.820;9.248;2024-01-30T10:49:45;10.93;;;8.15;;
15246;SDS011;7726;48.820;9.248;2024-01-30T10:52:12;10.07;;;7.45;;
15246;SDS011;7726;48.820;9.248;2024-01-30T10:54:42;13.03;;;8.53;;
15246;SDS011;7726;48.820;9.248;2024-01-30T10:57:11;15.80;;;7.82;;
15246;SDS011;7726;48.820;9.248;2024-01-30T10:59:40;13.43;;;7.95;;
15246;SDS011;7726;48.820;9.248;2024-01-30T11:02:08;12.15;;;7.63;;
15246;SDS011;7726;48.820;9.248;2024-01-30T11:04:36;9.38;;;7.40;;
15246;SDS011;7726;48.820;9.248;2024-01-30T11:07:13;10.23;;;7.50;;
15246;SDS011;7726;48.820;9.248;2024-01-30T11:09:41;10.50;;;6.93;;
15246;SDS011;7726;48.820;9.248;2024-01-30T11:12:15;11.88;;;7.82;;
15246;SDS011;7726;48.820;9.248;2024-01-30T11:14:43;10.15;;;7.65;;
15246;SDS011;7726;48.820;9.248;2024-01-30T11:17:10;11.95;;;7.55;;
15246;SDS011;7726;48.820;9.248;2024-01-30T11:19:38;11.95;;;7.50;;
15246;SDS011;7726;48.820;9.248;2024-01-30T11:22:06;10.13;;;7.05;;
15246;SDS011;7726;48.820;9.248;2024-01-30T11:24:36;9.55;;;7.10;;
15246;SDS011;7726;48.820;9.248;2024-01-30T11:27:07;8.25;;;6.47;;
15246;SDS011;7726;48.820;9.248;2024-01-30T11:29:35;8.07;;;6.90;;
15246;SDS011;7726;48.820;9.248;2024-01-30T11:32:04;11.88;;;7.25;;
15246;SDS011;7726;48.820;9.248;2024-01-30T11:34:32;12.73;;;8.07;;
15246;SDS011;7726;48.820;9.248;2024-01-30T11:37:03;12.93;;;7.10;;
15246;SDS011;7726;48.820;9.248;2024-01-30T11:39:30;11.00;;;7.90;;
15246;SDS011;7726;48.820;9.248;2024-01-30T11:41:58;9.82;;;7.88;;
15246;SDS011;7726;48.820;9.248;2024-01-30T11:44:25;11.63;;;8.20;;
15246;SDS011;7726;48.820;9.248;2024-01-30T11:46:53;14.93;;;7.97;;
15246;SDS011;7726;48.820;9.248;2024-01-30T11:49:21;16.38;;;9.30;;
15246;SDS011;7726;48.820;9.248;2024-01-30T11:51:48;19.58;;;11.32;;
15246;SDS011;7726;48.820;9.248;2024-01-30T11:54:15;24.08;;;11.77;;
15246;SDS011;7726;48.820;9.248;2024-01-30T11:56:43;16.83;;;11.10;;
15246;SDS011;7726;48.820;9.248;2024-01-30T11:59:10;18.42;;;9.30;;
15246;SDS011;7726;48.820;9.248;2024-01-30T12:01:37;15.80;;;9.35;;
15246;SDS011;7726;48.820;9.248;2024-01-30T12:04:04;12.60;;;8.55;;
15246;SDS011;7726;48.820;9.248;2024-01-30T12:06:35;15.10;;;9.23;;
15246;SDS011;7726;48.820;9.248;2024-01-30T12:09:03;17.50;;;8.88;;
15246;SDS011;7726;48.820;9.248;2024-01-30T12:11:30;23.60;;;9.80;;
15246;SDS011;7726;48.820;9.248;2024-01-30T12:13:57;21.52;;;10.23;;
15246;SDS011;7726;48.820;9.248;2024-01-30T12:16:24;19.45;;;10.93;;
15246;SDS011;7726;48.820;9.248;2024-01-30T12:18:59;22.85;;;11.52;;
15246;SDS011;7726;48.820;9.248;2024-01-30T12:21:27;17.98;;;10.60;;
15246;SDS011;7726;48.820;9.248;2024-01-30T12:23:55;17.63;;;10.00;;
15246;SDS011;7726;48.820;9.248;2024-01-30T12:26:23;18.98;;;10.15;;
15246;SDS011;7726;48.820;9.248;2024-01-30T12:28:53;20.67;;;10.02;;
15246;SDS011;7726;48.820;9.248;2024-01-30T12:31:25;18.63;;;9.50;;
15246;SDS011;7726;48.820;9.248;2024-01-30T12:33:52;14.80;;;10.48;;
15246;SDS011;7726;48.820;9.248;2024-01-30T12:36:20;13.40;;;8.43;;
15246;SDS011;7726;48.820;9.248;2024-01-30T12:38:48;15.80;;;9.35;;
15246;SDS011;7726;48.820;9.248;2024-01-30T12:41:16;13.60;;;8.85;;
15246;SDS011;7726;48.820;9.248;2024-01-30T12:43:43;15.82;;;7.95;;
15246;SDS011;7726;48.820;9.248;2024-01-30T12:46:12;11.70;;;8.80;;
15246;SDS011;7726;48.820;9.248;2024-01-30T12:48:39;17.05;;;8.40;;
15246;SDS011;7726;48.820;9.248;2024-01-30T12:51:07;11.40;;;8.32;;
15246;SDS011;7726;48.820;9.248;2024-01-30T12:53:34;9.88;;;8.50;;
15246;SDS011;7726;48.820;9.248;2024-01-30T12:56:01;12.65;;;8.90;;
15246;SDS011;7726;48.820;9.248;2024-01-30T12:58:30;10.25;;;8.65;;
15246;SDS011;7726;48.820;9.248;2024-01-30T13:00:57;12.52;;;8.50;;
15246;SDS011;7726;48.820;9.248;2024-01-30T13:03:24;13.00;;;9.13;;
15246;SDS011;7726;48.820;9.248;2024-01-30T13:05:52;13.35;;;8.30;;
15246;SDS011;7726;48.820;9.248;2024-01-30T13:08:19;15.27;;;8.32;;
15246;SDS011;7726;48.820;9.248;2024-01-30T13:10:46;13.40;;;8.43;;
15246;SDS011;7726;48.820;9.248;2024-01-30T13:13:13;14.60;;;8.80;;
15246;SDS011;7726;48.820;9.248;2024-01-30T13:15:42;10.63;;;9.00;;
15246;SDS011;7726;48.820;9.248;2024-01-30T13:18:09;9.43;;;8.15;;
15246;SDS011;7726;48.820;9.248;2024-01-30T13:20:36;12.60;;;8.95;;
15246;SDS011;7726;48.820;9.248;2024-01-30T13:23:03;11.98;;;8.88;;
15246;SDS011;7726;48.820;9.248;2024-01-30T13:25:30;14.57;;;8.60;;
15246;SDS011;7726;48.820;9.248;2024-01-30T13:27:58;14.18;;;8.13;;
15246;SDS011;7726;48.820;9.248;2024-01-30T13:30:26;12.63;;;8.90;;
15246;SDS011;7726;48.820;9.248;2024-01-30T13:32:54;11.55;;;8.52;;
15246;SDS011;7726;48.820;9.248;2024-01-30T13:35:22;12.43;;;8.50;;
15246;SDS011;7726;48.820;9.248;2024-01-30T13:37:49;13.48;;;8.98;;
15246;SDS011;7726;48.820;9.248;2024-01-30T13:40:16;10.65;;;8.55;;
15246;SDS011;7726;48.820;9.248;2024-01-30T13:42:43;13.75;;;8.88;;
15246;SDS011;7726;48.820;9.248;2024-01-30T13:45:10;13.48;;;9.68;;
15246;SDS011;7726;48.820;9.248;2024-01-30T13:47:38;13.30;;;8.65;;
15246;SDS011;7726;48.820;9.248;2024-01-30T13:50:07;13.43;;;9.40;;
15246;SDS011;7726;48.820;9.248;2024-01-30T13:52:40;11.40;;;8.18;;
15246;SDS011;7726;48.820;9.248;2024-01-30T13:55:07;11.13;;;8.65;;
15246;SDS011;7726;48.820;9.248;2024-01-30T13:57:34;11.98;;;7.45;;
15246;SDS011;7726;48.820;9.248;2024-01-30T14:00:02;13.88;;;8.27;;
15246;SDS011;7726;48.820;9.248;2024-01-30T14:02:30;12.18;;;8.48;;
15246;SDS011;7726;48.820;9.248;2024-01-30T14:04:57;11.32;;;8.77;;
15246;SDS011;7726;48.820;9.248;2024-01-30T14:07:26;12.40;;;8.32;;
15246;SDS011;7726;48.820;9.248;2024-01-30T14:09:53;11.95;;;8.30;;
15246;SDS011;7726;48.820;9.248;2024-01-30T14:12:20;13.18;;;8.55;;
15246;SDS011;7726;48.820;9.248;2024-01-30T14:14:48;12.25;;;7.80;;
15246;SDS011;7726;48.820;9.248;2024-01-30T14:17:15;14.00;;;8.05;;
15246;SDS011;7726;48.820;9.248;2024-01-30T14:19:42;12.57;;;7.47;;
15246;SDS011;7726;48.820;9.248;2024-01-30T14:22:10;11.05;;;7.88;;
15246;SDS011;7726;48.820;9.248;2024-01-30T14:24:38;9.45;;;7.47;;
15246;SDS011;7726;48.820;9.248;2024-01-30T14:27:05;11.35;;;7.70;;
15246;SDS011;7726;48.820;9.248;2024-01-30T14:29:33;11.73;;;6.93;;
15246;SDS011;7726;48.820;9.248;2024-01-30T14:32:00;10.00;;;7.43;;
15246;SDS011;7726;48.820;9.248;2024-01-30T14:34:29;10.18;;;7.90;;
15246;SDS011;7726;48.820;9.248;2024-01-30T14:36:57;7.88;;;6.95;;
15246;SDS011;7726;48.820;9.248;2024-01-30T14:39:24;12.48;;;7.32;;
15246;SDS011;7726;48.820;9.248;2024-01-30T14:41:53;9.55;;;7.03;;
15246;SDS011;7726;48.820;9.248;2024-01-30T14:44:20;14.00;;;7.05;;
15246;SDS011;7726;48.820;9.248;2024-01-30T14:46:47;9.30;;;7.50;;
15246;SDS011;7726;48.820;9.248;2024-01-30T14:49:15;11.73;;;8.35;;
15246;SDS011;7726;48.820;9.248;2024-01-30T14:51:42;14.32;;;7.95;;
15246;SDS011;7726;48.820;9.248;2024-01-30T14:54:09;11.40;;;7.93;;